Aérodrome :
LOGIN :

S'inscrire | Disclaimer

   EN    FR    IT 

 










Légende :    VFR   VFR Marginal   IFR   IFR Intensif   IFR Très Intensif
Visi : 
Plafond : 
>= 8 km
>= 3000ft
5 à 8 km
1000 à 3000 ft
1500m à 5 km
500 à 1000 ft
800 à 1500m
200 à 500 ft
< 800m
< 200 ft
Symboles :   Orages  Brouillard  Fortes neiges  Fortes précipitations  Vent > 20 kt
SIGMETs :   Divers  Orages  Givrage  Turbulence  Onde Orograph.  Cendres Volcan.







- Altitude de l'aérodrome : 1306 ft
- Code IATA : ACH


LSZR - Alten Rhein

METARs EXPIRÉS :
  • 241420Z 30006KT 250V350 9999 SCT045 25/17 Q1017 NOSIG RMK M
  • 241350Z AUTO 34005KT 280V010 9999 SCT050 24/15 Q1018
  • 241320Z 05007KT 360V080 9999 SCT040 BKN055 24/16 Q1018 NOSIG RMK K
  • 241250Z 05007KT 360V080 9999 SCT040 BKN055 25/18 Q1018 NOSIG RMK K
  • 241220Z 02006KT 330V070 9999 SCT040 BKN055 23/16 Q1019 NOSIG RMK J
  • 241150Z 02006KT 350V060 9999 SCT045 BKN250 23/17 Q1019 NOSIG RMK I

Prévision TAF périmée.
ATIS : +41 71 858 51 66
Pas de NOTAMs connus pour ce terrain.



MET'MAP, la Météo Aéronautique d'un coup d'oeil ! - Copyright ORBIFLY Décembre 2007 - Disclaimer

ORBIFLY MET'MAP TEAM :

Programmation & Développement : Alexandra Zaïnal
Conception & Développement : Baudouin d'Aumeries
Co-Programmation & Développement : Marc-Olivier Méhu
Soutien technique & logistique : Manuel Goepfert

Contact : metmap@orbifly.com




SOURCES & CREDITS :

   NOAA